Time;durP1;ratioP1;P1;durP2;ratioP2;P2;SDS_P1;SDS_P2;PMS_P1;PMS_P2;Temp;Humidity;BMP_temperature;BMP_pressure;BME280_temperature;BME280_humidity;BME280_pressure;Samples;Min_cycle;Max_cycle;Signal;HPM_P1;HPM_P2
2021/07/20 00:01:44;;;;;;;14.90;8.15;;;;;;;15.43;67.92;100775.38;1789786;80;21077;-77
2021/07/20 00:04:10;;;;;;;11.50;7.20;;;;;;;15.42;67.97;100782.59;1790134;79;21071;-77
2021/07/20 00:06:37;;;;;;;14.90;7.42;;;;;;;15.40;68.28;100773.91;1789578;80;21554;-77
2021/07/20 00:09:05;;;;;;;10.93;7.22;;;;;;;15.40;68.28;100773.91;1790244;80;21058;-77
2021/07/20 00:11:34;;;;;;;15.08;8.05;;;;;;;15.36;68.44;100772.63;1789799;80;21465;-77
2021/07/20 00:14:03;;;;;;;16.60;8.23;;;;;;;15.36;68.44;100772.63;1789869;80;21028;-77
2021/07/20 00:16:29;;;;;;;16.37;9.03;;;;;;;15.35;68.35;100764.73;1790190;80;26550;-77
2021/07/20 00:18:55;;;;;;;13.98;7.22;;;;;;;15.34;68.42;100766.59;1790111;80;21005;-77
2021/07/20 00:21:21;;;;;;;14.03;8.63;;;;;;;15.30;68.53;100768.02;1789994;80;21009;-77
2021/07/20 00:23:48;;;;;;;14.53;9.03;;;;;;;15.27;68.62;100764.89;1789923;80;21526;-77
2021/07/20 00:26:14;;;;;;;15.43;9.10;;;;;;;15.23;68.80;100760.41;1790047;80;21037;-77
2021/07/20 00:28:40;;;;;;;15.38;8.40;;;;;;;15.18;68.78;100764.16;1790129;79;20986;-77
2021/07/20 00:31:06;;;;;;;14.70;8.28;;;;;;;15.15;68.86;100763.20;1790042;80;21045;-77
2021/07/20 00:33:32;;;;;;;16.95;7.78;;;;;;;15.12;68.93;100762.25;1790125;80;21486;-77
2021/07/20 00:35:58;;;;;;;11.93;7.17;;;;;;;15.10;68.99;100761.59;1789897;80;21745;-77
2021/07/20 00:38:26;;;;;;;12.33;8.08;;;;;;;15.07;69.07;100768.69;1789606;78;20988;-77
2021/07/20 00:40:52;;;;;;;13.60;8.15;;;;;;;15.04;69.29;100758.33;1789842;79;20989;-77
2021/07/20 00:43:18;;;;;;;14.87;7.92;;;;;;;15.04;69.29;100758.33;1790170;80;21053;-77
2021/07/20 00:45:44;;;;;;;12.65;8.33;;;;;;;15.03;69.32;100758.00;1758535;81;21052;-77
2021/07/20 00:48:10;;;;;;;20.15;9.78;;;;;;;15.03;69.39;100758.00;1771458;80;21070;-77
2021/07/20 00:50:44;;;;;;;16.15;8.15;;;;;;;15.04;69.63;100756.15;1789947;79;21050;-77
2021/07/20 00:53:10;;;;;;;14.03;7.92;;;;;;;14.98;69.58;100734.92;1789858;80;21057;-77
2021/07/20 00:55:37;;;;;;;12.30;8.68;;;;;;;15.11;69.58;100753.86;1765417;80;20974;-77
2021/07/20 00:58:04;;;;;;;13.90;8.73;;;;;;;15.11;69.58;100753.86;1790153;80;21542;-77
2021/07/20 01:00:30;;;;;;;11.85;7.95;;;;;;;15.11;69.66;100749.83;1789996;80;21215;-77
2021/07/20 01:02:57;;;;;;;19.50;10.98;;;;;;;15.12;69.73;100749.32;1790034;80;21018;-77
2021/07/20 01:05:25;;;;;;;16.50;9.18;;;;;;;15.11;69.77;100760.58;1790433;80;21100;-77
2021/07/20 01:07:51;;;;;;;15.63;9.45;;;;;;;15.11;69.82;100756.55;1790073;80;21038;-77
2021/07/20 01:10:18;;;;;;;15.68;9.45;;;;;;;15.12;69.88;100752.01;1765502;80;21030;-76
2021/07/20 01:12:45;;;;;;;17.12;8.90;;;;;;;15.13;69.96;100750.45;1790286;79;21471;-76
2021/07/20 01:15:12;;;;;;;12.65;8.00;;;;;;;15.01;69.92;100730.51;1790061;79;20967;-77
2021/07/20 01:17:40;;;;;;;16.55;9.13;;;;;;;15.14;70.02;100753.47;1790071;80;20994;-76
2021/07/20 01:20:11;;;;;;;15.43;8.05;;;;;;;15.16;70.04;100759.50;1789860;80;21563;-76
2021/07/20 01:22:37;;;;;;;11.35;7.65;;;;;;;15.18;70.09;100757.95;1789599;80;20974;-76
2021/07/20 01:25:09;;;;;;;14.03;8.80;;;;;;;15.18;70.11;100744.02;1765166;80;21116;-77
2021/07/20 01:27:37;;;;;;;12.58;8.15;;;;;;;15.17;70.14;100746.38;1790085;80;21033;-76
2021/07/20 01:30:05;;;;;;;12.85;8.43;;;;;;;15.17;70.29;100736.97;1789870;80;21041;-77
2021/07/20 01:32:31;;;;;;;15.18;8.13;;;;;;;15.18;70.23;100737.30;1790149;80;21024;-76
2021/07/20 01:34:57;;;;;;;19.50;8.43;;;;;;;15.18;70.27;100734.61;1790273;80;21515;-76
2021/07/20 01:37:23;;;;;;;14.23;8.03;;;;;;;15.20;70.30;100743.84;1790014;80;21932;-76
2021/07/20 01:39:49;;;;;;;14.80;8.43;;;;;;;15.21;70.32;100740.94;1789966;78;21021;-76
2021/07/20 01:42:15;;;;;;;13.48;8.38;;;;;;;15.22;70.35;100733.20;1789584;80;21037;-76
2021/07/20 01:44:42;;;;;;;16.67;7.33;;;;;;;15.21;70.38;100734.22;1791311;79;21029;-76
2021/07/20 01:47:09;;;;;;;16.80;8.03;;;;;;;15.20;70.44;100733.89;1794500;79;21056;-76
2021/07/20 01:49:35;;;;;;;12.50;6.75;;;;;;;15.19;70.49;100740.31;1794543;80;21125;-77
2021/07/20 01:52:01;;;;;;;10.35;6.92;;;;;;;15.20;70.52;100739.27;1788677;80;20994;-76
2021/07/20 01:54:27;;;;;;;12.30;7.15;;;;;;;15.20;70.55;100738.46;1772650;79;21025;-76
2021/07/20 01:56:53;;;;;;;14.33;7.37;;;;;;;15.19;70.54;100736.28;1773042;80;21744;-76
2021/07/20 01:59:19;;;;;;;13.03;7.72;;;;;;;15.21;70.78;100728.02;1772484;79;20978;-77
2021/07/20 02:01:57;;;;;;;13.40;7.42;;;;;;;15.21;70.78;100728.02;1772698;80;21876;-77
2021/07/20 02:04:41;;;;;;;11.60;7.12;;;;;;;15.10;70.61;100706.52;1771844;80;21502;-77
2021/07/20 02:09:34;;;;;;;11.45;7.45;;;;;;;15.22;70.76;100729.69;1774106;79;21042;-77
2021/07/20 02:12:08;;;;;;;10.00;7.05;;;;;;;15.20;70.70;100724.48;1765639;80;21474;-76
2021/07/20 02:14:31;;;;;;;11.35;7.20;;;;;;;15.07;70.81;100702.88;1793223;78;21221;-77
2021/07/20 02:17:00;;;;;;;10.55;6.70;;;;;;;15.23;70.86;100728.16;1794242;79;20985;-77
2021/07/20 02:19:33;;;;;;;11.50;7.27;;;;;;;15.22;70.88;100730.52;1794302;79;21096;-77
2021/07/20 02:22:00;;;;;;;13.15;7.53;;;;;;;15.21;70.94;100724.81;1791435;80;21140;-76
2021/07/20 02:24:31;;;;;;;18.42;7.22;;;;;;;15.20;70.95;100721.00;1783031;79;21518;-76
2021/07/20 02:27:05;;;;;;;9.73;6.95;;;;;;;15.20;71.00;100721.80;1772571;80;21155;-76
2021/07/20 02:29:31;;;;;;;11.28;6.33;;;;;;;15.20;71.04;100723.69;1772127;79;21045;-77
2021/07/20 02:31:59;;;;;;;10.23;6.65;;;;;;;15.18;71.10;100722.52;1772645;79;21010;-77
2021/07/20 02:34:26;;;;;;;17.35;8.23;;;;;;;15.17;71.13;100716.81;1772586;80;21010;-77
2021/07/20 02:36:52;;;;;;;12.65;6.97;;;;;;;15.15;71.17;100725.59;1790096;80;20978;-77
2021/07/20 02:39:18;;;;;;;12.80;7.47;;;;;;;15.02;71.21;100709.86;1772507;81;21076;-76
2021/07/20 02:41:44;;;;;;;19.52;8.40;;;;;;;15.12;71.35;100727.83;1772529;81;20986;-77
2021/07/20 02:44:10;;;;;;;19.57;10.58;;;;;;;15.09;71.38;100731.73;1772439;81;21026;-77
2021/07/20 02:46:36;;;;;;;18.40;9.28;;;;;;;15.09;71.38;100731.73;1797226;79;21006;-76
2021/07/20 02:49:02;;;;;;;18.70;8.08;;;;;;;15.10;71.43;100721.29;1811992;79;21050;-77
2021/07/20 02:51:29;;;;;;;14.60;7.87;;;;;;;15.12;71.53;100725.98;1811671;79;21107;-77
2021/07/20 02:53:59;;;;;;;16.60;7.35;;;;;;;15.12;71.53;100725.98;1806362;79;21018;-77
2021/07/20 02:56:25;;;;;;;14.73;7.92;;;;;;;15.12;71.64;100723.30;1763389;81;21088;-77
2021/07/20 02:58:53;;;;;;;10.88;6.67;;;;;;;15.14;71.59;100717.71;1797759;79;21091;-77
2021/07/20 03:01:20;;;;;;;14.65;7.35;;;;;;;15.14;71.54;100725.27;1798212;79;21526;-77
2021/07/20 03:03:46;;;;;;;11.75;6.85;;;;;;;15.09;71.70;100715.63;1798243;79;21830;-77
2021/07/20 03:06:12;;;;;;;14.70;7.22;;;;;;;15.19;71.61;100728.22;1798296;79;20926;-77
2021/07/20 03:08:38;;;;;;;13.68;6.53;;;;;;;15.20;71.71;100721.80;1773056;79;21067;-77
2021/07/20 03:11:09;;;;;;;12.35;7.75;;;;;;;15.20;71.75;100724.48;1797992;79;21028;-77
2021/07/20 03:13:39;;;;;;;12.70;6.87;;;;;;;15.21;71.79;100728.84;1798127;79;21045;-77
2021/07/20 03:16:08;;;;;;;13.05;6.92;;;;;;;15.20;71.95;100728.52;1797879;79;21879;-77
2021/07/20 03:18:35;;;;;;;15.15;7.05;;;;;;;15.19;72.00;100726.88;1797622;79;20981;-77
2021/07/20 03:21:01;;;;;;;11.80;7.20;;;;;;;15.19;72.00;100726.88;1797680;79;21001;-77
2021/07/20 03:23:27;;;;;;;12.28;7.65;;;;;;;15.07;72.20;100710.94;1773087;79;21487;-77
2021/07/20 03:25:55;;;;;;;18.57;7.80;;;;;;;15.16;72.04;100718.37;1798006;79;21617;-77
2021/07/20 03:28:23;;;;;;;14.07;6.97;;;;;;;15.16;71.95;100717.86;1798097;78;21235;-77
2021/07/20 03:30:49;;;;;;;17.77;7.25;;;;;;;14.96;72.10;100682.73;1798125;79;21017;-77
2021/07/20 03:33:16;;;;;;;12.75;7.00;;;;;;;15.18;72.13;100723.86;1798141;79;21019;-77
2021/07/20 03:35:43;;;;;;;13.38;6.83;;;;;;;15.12;72.13;100704.48;1797365;79;21068;-77
2021/07/20 03:38:09;;;;;;;11.38;6.20;;;;;;;15.12;72.13;100704.48;1796719;79;21087;-77
2021/07/20 03:40:35;;;;;;;13.62;6.65;;;;;;;15.26;72.27;100725.59;1797273;78;21076;-77
2021/07/20 03:43:01;;;;;;;16.00;7.05;;;;;;;15.26;72.27;100725.59;1797544;79;20994;-77
2021/07/20 03:45:27;;;;;;;16.50;7.05;;;;;;;15.28;72.27;100723.02;1787337;79;21022;-77
2021/07/20 03:47:53;;;;;;;16.52;6.75;;;;;;;15.29;72.30;100726.05;1771952;80;21073;-77
2021/07/20 03:50:19;;;;;;;11.30;6.28;;;;;;;15.30;72.30;100724.19;1771735;80;21029;-77
2021/07/20 03:52:45;;;;;;;16.52;6.00;;;;;;;15.31;72.31;100725.33;1771216;80;21542;-77
2021/07/20 03:55:12;;;;;;;10.82;6.30;;;;;;;15.34;72.33;100724.94;1771611;81;21470;-77
2021/07/20 03:57:38;;;;;;;16.27;6.60;;;;;;;15.38;72.33;100734.79;1772170;80;20986;-77
2021/07/20 04:00:07;;;;;;;12.80;6.95;;;;;;;15.41;72.34;100733.89;1793141;80;20997;-77
2021/07/20 04:02:45;;;;;;;13.73;6.77;;;;;;;15.41;72.32;100735.23;1779631;80;21094;-77
2021/07/20 04:05:06;;;;;;;13.03;6.70;;;;;;;15.32;72.63;100717.59;1771424;80;22055;-77
2021/07/20 04:07:32;;;;;;;12.80;6.25;;;;;;;15.35;72.36;100722.58;1771922;80;21034;-77
2021/07/20 04:10:00;;;;;;;16.55;6.62;;;;;;;15.41;72.40;100735.23;1771846;79;21021;-77
2021/07/20 04:12:26;;;;;;;13.85;5.35;;;;;;;15.43;72.41;100735.89;1772017;79;20987;-77
2021/07/20 04:14:53;;;;;;;11.30;6.47;;;;;;;15.44;72.41;100733.53;1772140;80;20982;-77
2021/07/20 04:17:20;;;;;;;10.88;6.08;;;;;;;15.45;72.43;100735.17;1773506;80;21776;-77
2021/07/20 04:19:46;;;;;;;16.67;7.00;;;;;;;15.45;72.47;100729.80;1772178;81;21014;-77
2021/07/20 04:22:12;;;;;;;9.75;6.28;;;;;;;15.46;72.48;100736.84;1772052;81;21001;-77
2021/07/20 04:24:39;;;;;;;16.42;6.15;;;;;;;15.47;72.51;100735.83;1771822;79;21064;-77
2021/07/20 04:27:06;;;;;;;10.78;5.75;;;;;;;15.50;72.53;100737.32;1772122;80;21014;-77
2021/07/20 04:29:32;;;;;;;9.35;5.60;;;;;;;15.51;72.54;100736.30;1771974;81;21142;-77
2021/07/20 04:32:02;;;;;;;11.93;6.03;;;;;;;15.54;72.55;100733.73;1772020;81;20998;-77
2021/07/20 04:34:28;;;;;;;;;;;;;;;15.58;72.58;100733.67;1778973;80;21009;-77
2021/07/20 04:36:54;;;;;;;8.80;5.85;;;;;;;15.61;72.59;100730.08;1794142;79;20244;-77
2021/07/20 04:39:20;;;;;;;13.98;7.25;;;;;;;15.65;72.57;100735.91;1792690;78;21028;-77
2021/07/20 04:41:46;;;;;;;20.57;7.28;;;;;;;15.68;72.56;100735.00;1793351;80;21135;-77
2021/07/20 04:44:14;;;;;;;11.05;6.60;;;;;;;15.73;72.56;100738.42;1793381;80;21044;-77
2021/07/20 04:46:40;;;;;;;10.28;6.28;;;;;;;15.78;72.57;100745.41;1768718;79;21064;-77
2021/07/20 04:49:06;;;;;;;11.00;6.22;;;;;;;15.83;72.58;100744.33;1797046;78;21063;-77
2021/07/20 04:51:32;;;;;;;8.73;5.87;;;;;;;15.86;72.58;100742.58;1797081;79;20998;-77
2021/07/20 04:54:03;;;;;;;12.15;5.45;;;;;;;15.89;72.60;100740.84;1796992;79;21129;-77
2021/07/20 04:56:28;;;;;;;13.60;6.17;;;;;;;15.90;72.60;100739.83;1770335;79;21577;-77
2021/07/20 04:58:54;;;;;;;10.82;6.00;;;;;;;15.94;72.59;100742.41;1797002;79;21534;-77
2021/07/20 05:01:20;;;;;;;16.48;6.58;;;;;;;15.95;72.61;100745.42;1796670;78;20998;-77
2021/07/20 05:03:46;;;;;;;15.78;5.78;;;;;;;16.00;72.60;100752.41;1796904;79;21030;-77
2021/07/20 05:06:12;;;;;;;12.30;5.47;;;;;;;16.07;72.59;100749.77;1796619;79;21066;-77
2021/07/20 05:08:39;;;;;;;8.55;5.33;;;;;;;16.11;72.55;100750.52;1796546;79;21002;-77
2021/07/20 05:11:05;;;;;;;14.10;8.08;;;;;;;16.15;72.53;100751.77;1797104;79;21127;-77
2021/07/20 05:13:32;;;;;;;14.90;6.15;;;;;;;16.18;72.49;100752.75;1796782;79;21918;-77
2021/07/20 05:16:00;;;;;;;10.43;5.33;;;;;;;16.23;72.45;100758.34;1797130;79;21083;-77
2021/07/20 05:18:26;;;;;;;16.90;5.85;;;;;;;16.26;72.41;100752.56;1796781;79;21025;-77
2021/07/20 05:20:59;;;;;;;19.12;6.30;;;;;;;16.27;72.39;100762.31;1796789;79;21017;-76
2021/07/20 05:23:26;;;;;;;17.17;6.25;;;;;;;16.29;72.36;100766.16;1796821;79;20988;-77
2021/07/20 05:25:55;;;;;;;10.25;5.90;;;;;;;16.34;72.34;100767.73;1797004;79;20985;-77
2021/07/20 05:28:27;;;;;;;15.70;6.10;;;;;;;16.38;72.27;100773.88;1797066;79;21024;-77
2021/07/20 05:30:54;;;;;;;;;;;;;;;16.40;72.25;100769.11;1797007;79;21302;-77
2021/07/20 05:33:20;;;;;;;9.78;5.78;;;;;;;16.47;72.23;100773.17;1790646;79;20166;-77
2021/07/20 05:35:59;;;;;;;10.28;5.87;;;;;;;16.50;72.19;100773.61;1761930;81;21459;-77
2021/07/20 05:38:26;;;;;;;10.28;6.12;;;;;;;16.48;72.14;100767.61;1761367;80;21148;-77
2021/07/20 05:40:54;;;;;;;11.88;6.00;;;;;;;16.53;72.15;100772.91;1762817;79;21057;-77
2021/07/20 05:43:20;;;;;;;11.68;5.40;;;;;;;16.58;72.12;100773.16;1788571;79;21131;-77
2021/07/20 05:45:46;;;;;;;14.28;5.78;;;;;;;16.62;72.09;100777.13;1795666;79;21026;-76
2021/07/20 05:48:17;;;;;;;8.83;5.87;;;;;;;16.65;72.04;100784.80;1796005;79;21076;-77
2021/07/20 05:50:51;;;;;;;9.63;5.83;;;;;;;16.65;71.99;100782.10;1772607;79;20974;-77
2021/07/20 05:53:19;;;;;;;7.45;5.50;;;;;;;16.71;71.96;100783.48;1796798;79;21062;-77
2021/07/20 05:55:53;;;;;;;17.60;6.50;;;;;;;16.81;71.92;100784.47;1817318;78;21938;-77
2021/07/20 05:58:20;;;;;;;10.20;4.85;;;;;;;16.86;71.84;100792.77;1824861;78;20996;-77
2021/07/20 06:00:47;;;;;;;10.58;5.37;;;;;;;16.89;71.83;100784.28;1805934;78;21039;-77
2021/07/20 06:03:17;;;;;;;13.43;6.28;;;;;;;16.90;71.78;100794.87;1772077;81;20986;-77
2021/07/20 06:05:43;;;;;;;8.58;5.20;;;;;;;16.97;71.76;100794.89;1771456;81;21006;-77
2021/07/20 06:08:15;;;;;;;12.43;5.92;;;;;;;17.08;71.70;100797.00;1772390;81;21131;-77
2021/07/20 06:10:44;;;;;;;15.50;5.97;;;;;;;17.12;71.59;100794.73;1772458;81;21006;-77
2021/07/20 06:13:10;;;;;;;10.35;5.05;;;;;;;17.14;71.47;100791.30;1772336;81;21061;-77
2021/07/20 06:15:39;;;;;;;9.30;5.72;;;;;;;17.19;71.40;100791.55;1809351;79;21030;-77
2021/07/20 06:18:05;;;;;;;10.43;6.08;;;;;;;17.23;71.33;100797.68;1809243;79;21456;-77
2021/07/20 06:20:31;;;;;;;13.45;5.67;;;;;;;17.23;71.27;100797.68;1794291;79;21110;-77
2021/07/20 06:22:57;;;;;;;12.63;6.12;;;;;;;17.29;71.21;100796.86;1775489;80;21041;-77
2021/07/20 06:25:24;;;;;;;11.90;6.22;;;;;;;17.34;71.11;100803.00;1775300;80;21014;-77
2021/07/20 06:27:50;;;;;;;13.48;5.58;;;;;;;17.37;71.02;100803.42;1775623;80;21009;-77
2021/07/20 06:30:16;;;;;;;13.15;5.92;;;;;;;17.44;70.94;100805.61;1775673;79;21525;-77
2021/07/20 06:32:43;;;;;;;13.62;6.45;;;;;;;17.52;70.81;100806.45;1773421;79;21110;-76
2021/07/20 06:35:13;;;;;;;13.45;6.37;;;;;;;17.62;70.73;100805.56;1774640;80;21100;-77
2021/07/20 06:37:45;;;;;;;12.25;5.58;;;;;;;17.69;70.63;100805.05;1776477;79;21058;-77
2021/07/20 06:40:14;;;;;;;11.53;5.25;;;;;;;17.74;70.55;100805.25;1775536;79;21465;-77
2021/07/20 06:42:41;;;;;;;9.40;5.67;;;;;;;17.80;70.45;100819.28;1773745;80;21046;-77
2021/07/20 06:45:08;;;;;;;14.18;5.97;;;;;;;17.87;70.31;100810.67;1789048;80;21470;-78
2021/07/20 06:47:39;;;;;;;11.18;5.60;;;;;;;17.91;70.20;100817.29;1771695;80;21118;-77
2021/07/20 06:50:04;;;;;;;10.93;5.62;;;;;;;17.97;70.02;100811.09;1741629;81;21000;-78
2021/07/20 06:52:30;;;;;;;11.12;5.92;;;;;;;18.05;69.96;100810.85;1787716;78;21108;-78
2021/07/20 06:54:56;;;;;;;18.42;5.33;;;;;;;18.13;69.85;100816.05;1772838;79;20985;-78
2021/07/20 06:57:22;;;;;;;9.75;5.80;;;;;;;18.14;69.64;100809.62;1742174;81;21736;-77
2021/07/20 06:59:48;;;;;;;12.88;5.55;;;;;;;18.20;69.57;100808.77;1798909;78;21029;-78
2021/07/20 07:02:21;;;;;;;15.70;6.42;;;;;;;18.25;69.50;100808.98;1779957;80;20998;-78
2021/07/20 07:04:58;;;;;;;14.30;5.83;;;;;;;18.34;69.42;100810.41;1797331;78;21140;-78
2021/07/20 07:07:24;;;;;;;12.73;6.50;;;;;;;18.44;69.27;100816.20;1796600;78;21057;-78
2021/07/20 07:09:50;;;;;;;15.50;6.08;;;;;;;18.50;69.07;100811.02;1793963;78;21588;-78
2021/07/20 07:12:18;;;;;;;17.65;5.20;;;;;;;18.56;68.99;100816.95;1787480;80;21506;-78
2021/07/20 07:14:44;;;;;;;13.98;5.85;;;;;;;18.60;68.92;100808.73;1817858;78;21310;-78
2021/07/20 07:17:10;;;;;;;8.95;5.78;;;;;;;18.63;68.82;100813.71;1795475;78;21060;-78
2021/07/20 07:19:36;;;;;;;11.88;5.53;;;;;;;18.72;68.73;100817.83;1802800;78;21541;-77
2021/07/20 07:22:02;;;;;;;13.40;5.10;;;;;;;18.80;68.52;100815.73;1786795;80;21767;-78
2021/07/20 07:24:28;;;;;;;8.88;5.40;;;;;;;18.90;68.43;100819.33;1793508;78;21076;-78
2021/07/20 07:26:55;;;;;;;12.73;5.40;;;;;;;18.93;68.29;100829.19;1808508;78;21149;-78
2021/07/20 07:29:21;;;;;;;18.90;6.17;;;;;;;19.04;68.16;100822.28;1786786;80;21045;-78
2021/07/20 07:31:48;;;;;;;21.57;5.45;;;;;;;19.13;68.01;100818.31;1792823;79;20997;-77
2021/07/20 07:34:14;;;;;;;15.78;5.90;;;;;;;19.22;67.83;100812.94;1793312;80;21101;-78
2021/07/20 07:36:42;;;;;;;9.13;4.75;;;;;;;19.32;67.67;100814.66;1791512;80;21009;-78
2021/07/20 07:39:08;;;;;;;9.60;5.17;;;;;;;19.48;67.44;100815.23;1771678;80;21070;-78
2021/07/20 07:41:39;;;;;;;20.32;6.75;;;;;;;19.57;67.29;100821.51;1790160;80;37547;-78
2021/07/20 07:44:07;;;;;;;14.98;5.37;;;;;;;19.63;67.05;100821.17;1735397;81;21001;-77
2021/07/20 07:46:35;;;;;;;8.90;4.03;;;;;;;19.74;66.92;100817.22;1792229;78;21838;-78
2021/07/20 07:49:01;;;;;;;8.00;3.87;;;;;;;19.82;66.74;100815.61;1801209;78;21002;-78
2021/07/20 07:51:27;;;;;;;11.45;5.37;;;;;;;19.88;66.53;100814.72;1793944;80;21019;-78
2021/07/20 07:53:58;;;;;;;8.43;4.40;;;;;;;20.00;66.35;100814.84;1794371;80;21589;-78
2021/07/20 07:56:21;;;;;;;9.20;4.70;;;;;;;20.10;66.12;100812.45;1794185;79;21051;-78
2021/07/20 07:58:47;;;;;;;9.60;4.25;;;;;;;20.19;65.94;100819.27;1794592;80;21772;-78
2021/07/20 08:01:13;;;;;;;10.88;4.17;;;;;;;20.38;65.82;100815.55;1794452;80;21101;-78
2021/07/20 08:03:42;;;;;;;13.03;4.67;;;;;;;20.58;65.63;100815.89;1794221;80;21058;-78
2021/07/20 08:06:09;;;;;;;13.50;4.65;;;;;;;20.61;65.38;100816.78;1794815;80;21495;-78
2021/07/20 08:08:37;;;;;;;9.98;4.03;;;;;;;20.83;65.20;100807.13;1794658;80;21026;-78
2021/07/20 08:11:04;;;;;;;11.08;4.72;;;;;;;20.91;64.78;100812.25;1766351;80;21480;-78
2021/07/20 08:13:30;;;;;;;8.33;4.28;;;;;;;20.86;64.43;100812.92;1766214;80;20996;-78
2021/07/20 08:15:56;;;;;;;11.85;4.75;;;;;;;20.99;64.25;100811.95;1787905;79;20990;-78
2021/07/20 08:18:23;;;;;;;11.08;4.35;;;;;;;21.15;63.99;100806.44;1774034;80;21002;-78
2021/07/20 08:20:54;;;;;;;8.95;3.77;;;;;;;21.34;63.78;100808.91;1774129;80;21518;-78
2021/07/20 08:23:19;;;;;;;8.98;3.55;;;;;;;21.48;63.39;100816.84;1772525;80;22117;-78
2021/07/20 08:25:45;;;;;;;11.75;4.12;;;;;;;21.68;63.09;100813.30;1772621;79;21006;-78
2021/07/20 08:28:16;;;;;;;6.75;3.55;;;;;;;21.89;62.73;100810.03;1772891;81;20982;-78
2021/07/20 08:30:45;;;;;;;24.23;4.60;;;;;;;21.95;62.38;100807.80;1757312;80;21070;-78
2021/07/20 08:33:17;;;;;;;6.97;3.90;;;;;;;22.03;62.03;100799.28;1779072;80;20966;-78
2021/07/20 08:35:43;;;;;;;10.00;3.27;;;;;;;22.23;61.67;100802.50;1772823;79;21587;-78
2021/07/20 08:38:12;;;;;;;5.42;3.22;;;;;;;22.53;61.27;100797.44;1782409;80;21380;-78
2021/07/20 08:40:51;;;;;;;7.92;3.62;;;;;;;22.71;60.87;100798.69;1794337;79;21060;-78
2021/07/20 08:43:40;;;;;;;6.70;4.03;;;;;;;22.80;60.40;100799.42;1772693;80;21019;-78
2021/07/20 08:46:34;;;;;;;4.58;2.77;;;;;;;22.98;59.90;100803.04;1674991;81;21003;-78
2021/07/20 08:49:28;;;;;;;5.03;3.00;;;;;;;22.93;59.44;100805.14;1768350;79;21787;-79
2021/07/20 08:52:13;;;;;;;9.13;3.10;;;;;;;23.09;58.87;100796.73;1732480;81;21061;-79
2021/07/20 08:54:51;;;;;;;4.85;2.80;;;;;;;23.16;58.46;100789.25;1740361;81;21490;-79
2021/07/20 08:57:22;;;;;;;8.88;3.62;;;;;;;22.96;58.10;100797.03;1775094;80;21064;-79
2021/07/20 09:00:01;;;;;;;7.65;3.40;;;;;;;22.38;57.69;100793.31;1738427;81;21026;-79
2021/07/20 09:03:08;;;;;;;9.25;3.95;;;;;;;22.03;57.64;100797.92;1706976;83;21652;-79
2021/07/20 09:05:45;;;;;;;9.08;4.20;;;;;;;21.78;57.40;100786.40;1777920;79;21430;-79
2021/07/20 09:08:37;;;;;;;9.70;5.00;;;;;;;21.41;57.23;100789.28;1778704;80;20974;-78
2021/07/20 09:11:27;;;;;;;9.65;4.80;;;;;;;21.18;57.23;100789.17;1784159;80;21430;-78
2021/07/20 09:14:19;;;;;;;13.38;4.65;;;;;;;21.03;57.28;100788.75;1784642;79;20922;-78
2021/07/20 09:16:52;;;;;;;14.18;5.75;;;;;;;20.83;57.42;100788.98;1774274;80;20990;-78
2021/07/20 09:19:38;;;;;;;10.30;5.37;;;;;;;20.65;57.44;100790.89;1784637;80;21037;-78
2021/07/20 09:22:21;;;;;;;11.53;5.17;;;;;;;20.61;57.53;100795.11;1783794;80;21025;-78
2021/07/20 09:24:57;;;;;;;14.35;4.15;;;;;;;20.62;57.52;100792.16;1784465;80;21091;-79
2021/07/20 09:27:41;;;;;;;9.98;4.08;;;;;;;20.80;57.59;100794.03;1768527;81;21029;-78
2021/07/20 09:30:12;;;;;;;12.82;5.00;;;;;;;20.96;57.63;100798.85;1760581;81;21014;-78
2021/07/20 09:33:07;;;;;;;8.83;3.98;;;;;;;20.98;57.58;100796.73;1780818;80;21484;-78
2021/07/20 09:36:12;;;;;;;16.87;4.72;;;;;;;20.88;57.59;100796.44;1753896;81;20981;-78
2021/07/20 09:39:21;;;;;;;10.05;5.25;;;;;;;20.97;57.62;100795.62;1780865;80;20998;-78
2021/07/20 09:41:52;;;;;;;;;;;;;;;21.10;57.54;100794.95;1790118;80;21046;-78
2021/07/20 09:44:37;;;;;;;10.80;5.10;;;;;;;21.14;57.47;100790.72;1785085;79;21312;-78
2021/07/20 09:47:26;;;;;;;10.48;4.60;;;;;;;21.13;57.42;100789.05;1749476;81;21065;-78
2021/07/20 09:50:07;;;;;;;9.15;4.30;;;;;;;21.10;57.36;100792.23;1776003;80;21037;-78
2021/07/20 09:52:42;;;;;;;11.05;3.95;;;;;;;21.13;57.32;100793.65;1776362;80;20994;-78
2021/07/20 09:55:48;;;;;;;7.12;3.70;;;;;;;21.24;57.26;100794.23;1775710;80;20978;-78
2021/07/20 09:58:45;;;;;;;10.58;4.50;;;;;;;21.27;57.09;100786.46;1775154;80;21268;-78
2021/07/20 10:01:22;;;;;;;20.80;5.58;;;;;;;21.19;56.91;100797.62;1712134;80;20938;-78
2021/07/20 10:04:13;;;;;;;14.45;4.37;;;;;;;21.13;56.77;100786.34;1717113;80;21061;-78
2021/07/20 10:07:08;;;;;;;8.65;4.45;;;;;;;21.16;56.59;100785.87;1775380;80;21025;-78
2021/07/20 10:09:53;;;;;;;13.65;4.37;;;;;;;21.17;56.47;100776.70;1755526;80;21037;-78
2021/07/20 10:12:58;;;;;;;10.03;4.70;;;;;;;21.25;56.28;100772.84;1776135;80;21228;-78
2021/07/20 10:15:31;;;;;;;13.05;4.58;;;;;;;21.24;56.20;100778.78;1776129;80;20973;-78
2021/07/20 10:18:03;;;;;;;10.05;4.85;;;;;;;21.18;56.08;100776.17;1774855;80;20984;-79
2021/07/20 10:20:37;;;;;;;10.55;4.45;;;;;;;21.31;56.07;100775.97;1775880;80;20982;-78
2021/07/20 10:23:36;;;;;;;4.45;3.40;;;;;;;21.52;56.05;100778.69;1776200;80;20951;-78
2021/07/20 10:26:17;;;;;;;10.75;3.72;;;;;;;21.59;55.79;100780.77;1776195;80;21406;-78
2021/07/20 10:29:07;;;;;;;9.73;3.90;;;;;;;21.46;55.52;100778.27;1773968;80;21001;-79
2021/07/20 10:31:58;;;;;;;10.93;3.60;;;;;;;21.49;55.47;100781.87;1774627;80;21442;-78
2021/07/20 10:34:26;;;;;;;27.25;5.60;;;;;;;21.56;55.37;100779.88;1775074;79;21506;-78
2021/07/20 10:36:58;;;;;;;7.58;3.60;;;;;;;21.70;55.27;100775.91;1775814;79;21102;-78
2021/07/20 10:39:31;;;;;;;9.63;3.20;;;;;;;21.68;55.13;100772.57;1770996;79;21276;-78
2021/07/20 10:42:09;;;;;;;6.15;3.10;;;;;;;21.62;55.13;100771.63;1748079;80;20908;-78
2021/07/20 10:45:00;;;;;;;5.17;3.25;;;;;;;21.70;55.00;100779.97;1775228;79;21045;-78
2021/07/20 10:47:58;;;;;;;7.03;2.98;;;;;;;21.71;54.87;100778.92;1797299;79;21526;-78
2021/07/20 10:50:29;;;;;;;7.92;3.30;;;;;;;21.69;54.81;100778.31;1797026;79;21024;-78
2021/07/20 10:53:07;;;;;;;9.65;3.08;;;;;;;21.70;54.78;100772.66;1771423;79;21369;-78
2021/07/20 10:55:54;;;;;;;4.80;2.92;;;;;;;21.70;54.71;100786.76;1801937;78;21550;-77
2021/07/20 10:58:51;;;;;;;5.97;2.62;;;;;;;21.59;54.44;100774.81;1794616;79;21050;-78
2021/07/20 11:01:51;;;;;;;7.97;2.90;;;;;;;21.50;54.31;100778.11;1790568;79;21501;-78
2021/07/20 11:04:46;;;;;;;5.60;2.65;;;;;;;21.43;54.17;100782.80;1795896;78;20990;-78
2021/07/20 11:07:16;;;;;;;8.88;3.40;;;;;;;21.33;54.02;100781.46;1767607;80;21366;-78
2021/07/20 11:09:42;;;;;;;7.95;3.75;;;;;;;21.31;53.79;100778.69;1771943;79;21479;-78
2021/07/20 11:12:08;;;;;;;7.22;3.80;;;;;;;21.35;53.72;100773.94;1774228;80;21542;-78
2021/07/20 11:14:45;;;;;;;11.18;3.17;;;;;;;21.47;53.67;100775.83;1797709;79;20984;-78
2021/07/20 11:17:11;;;;;;;9.08;3.77;;;;;;;21.50;53.60;100774.03;1797146;79;21048;-78
2021/07/20 11:19:37;;;;;;;7.95;3.85;;;;;;;21.56;53.50;100778.00;1797250;79;21292;-78
2021/07/20 11:22:04;;;;;;;9.95;3.15;;;;;;;21.60;53.34;100772.94;1795961;79;20984;-77
2021/07/20 11:24:30;;;;;;;8.38;2.62;;;;;;;21.61;53.28;100785.42;1771094;81;21033;-77
2021/07/20 11:27:00;;;;;;;9.30;2.98;;;;;;;21.56;53.18;100782.59;1770889;81;21002;-77
2021/07/20 11:29:24;;;;;;;3.87;2.70;;;;;;;21.45;53.14;100773.36;1787338;78;21063;-77
2021/07/20 11:31:57;;;;;;;7.65;2.95;;;;;;;21.30;53.18;100779.73;1814489;78;21285;-77
2021/07/20 11:34:30;;;;;;;6.80;2.72;;;;;;;21.16;53.20;100775.03;1797120;79;21445;-77
2021/07/20 11:37:10;;;;;;;12.78;3.10;;;;;;;21.02;53.24;100777.59;1796277;79;21102;-77
2021/07/20 11:39:45;;;;;;;8.08;2.62;;;;;;;20.89;53.31;100777.25;1798319;78;21007;-77